Time;durP1;ratioP1;P1;durP2;ratioP2;P2;SDS_P1;SDS_P2;PMS_P1;PMS_P2;Temp;Humidity;BMP_temperature;BMP_pressure;BME280_temperature;BME280_humidity;BME280_pressure;Samples;Min_cycle;Max_cycle;Signal;HPM_P1;HPM_P2
2022/05/10 00:00:54;;;;;;;3.00;1.80;;;;;;;15.38;37.33;95396.41;4966361;28;20224;-63
2022/05/10 00:03:23;;;;;;;3.22;1.85;;;;;;;15.39;36.90;95385.63;4967486;28;20266;-63
2022/05/10 00:05:49;;;;;;;2.40;1.70;;;;;;;15.39;36.90;95388.28;4962649;28;20223;-63
2022/05/10 00:08:17;;;;;;;3.95;1.70;;;;;;;15.35;36.87;95373.75;4970398;28;20216;-63
2022/05/10 00:10:44;;;;;;;3.33;1.80;;;;;;;15.42;36.81;95387.97;4964263;28;20232;-68
2022/05/10 00:13:11;;;;;;;2.78;1.92;;;;;;;15.42;36.66;95380.00;4972711;28;20297;-72
2022/05/10 00:15:38;;;;;;;2.45;1.77;;;;;;;15.33;36.81;95380.22;4960826;28;20262;-67
2022/05/10 00:18:03;;;;;;;2.28;1.63;;;;;;;15.22;36.93;95384.88;4967253;28;20220;-67
2022/05/10 00:20:29;;;;;;;2.42;1.70;;;;;;;15.18;37.08;95380.09;4971619;28;20228;-62
2022/05/10 00:22:54;;;;;;;4.10;1.90;;;;;;;15.18;36.97;95377.44;4965356;28;20216;-62
2022/05/10 00:25:29;;;;;;;1.85;1.60;;;;;;;15.12;37.50;95383.44;4969651;28;20234;-62
2022/05/10 00:27:55;;;;;;;2.08;1.65;;;;;;;15.12;37.52;95386.91;4980315;28;20231;-62
2022/05/10 00:30:21;;;;;;;2.40;2.00;;;;;;;15.04;37.66;95386.91;4961533;28;20263;-62
2022/05/10 00:32:47;;;;;;;2.72;1.90;;;;;;;14.69;38.21;95393.47;4958559;28;20282;-66
2022/05/10 00:35:21;;;;;;;1.90;1.75;;;;;;;14.52;38.85;95382.03;4961254;28;20328;-64
2022/05/10 00:37:50;;;;;;;3.08;1.50;;;;;;;14.84;38.03;95393.63;4973797;28;20225;-65
2022/05/10 00:40:20;;;;;;;2.78;1.50;;;;;;;14.87;37.89;95383.50;4973548;28;20306;-65
2022/05/10 00:42:48;;;;;;;1.90;1.48;;;;;;;14.89;37.76;95380.66;4963031;28;20218;-66
2022/05/10 00:45:17;;;;;;;3.40;1.90;;;;;;;14.78;37.81;95384.50;4977291;28;20196;-65
2022/05/10 00:47:48;;;;;;;4.47;1.88;;;;;;;14.90;37.40;95382.34;4976539;28;20223;-65
2022/05/10 00:50:22;;;;;;;3.92;1.92;;;;;;;14.82;37.57;95380.53;4973833;28;20228;-66
2022/05/10 00:53:08;;;;;;;2.08;1.45;;;;;;;14.82;37.95;95379.72;4966454;28;20306;-69
2022/05/10 00:55:44;;;;;;;2.72;1.70;;;;;;;14.80;38.34;95373.75;4961919;28;20224;-67
2022/05/10 00:58:28;;;;;;;4.07;1.92;;;;;;;14.80;38.65;95377.22;4984183;28;20234;-65
2022/05/10 01:00:55;;;;;;;1.98;1.77;;;;;;;14.58;39.13;95381.41;4972760;28;20227;-65
2022/05/10 01:03:38;;;;;;;3.88;1.90;;;;;;;14.55;40.09;95387.84;4961191;28;20215;-65
2022/05/10 01:06:11;;;;;;;3.15;1.90;;;;;;;14.68;40.29;95389.16;4966607;28;20318;-65
2022/05/10 01:09:09;;;;;;;3.50;2.00;;;;;;;14.68;40.19;95375.94;4969401;28;20225;-65
2022/05/10 01:11:46;;;;;;;3.25;1.70;;;;;;;14.63;40.49;95381.72;4973140;28;20287;-65
2022/05/10 01:14:27;;;;;;;4.88;2.00;;;;;;;14.33;41.48;95377.94;4967505;28;20255;-65
2022/05/10 01:16:53;;;;;;;2.63;1.90;;;;;;;14.32;41.29;95374.44;4982061;28;20227;-69
2022/05/10 01:19:18;;;;;;;3.80;2.15;;;;;;;14.16;41.69;95368.31;4962662;28;20235;-64
2022/05/10 01:21:58;;;;;;;6.15;2.22;;;;;;;14.20;41.22;95367.84;4959359;28;20207;-64
2022/05/10 01:24:41;;;;;;;2.80;2.20;;;;;;;14.09;41.37;95366.34;4977143;28;20204;-65
2022/05/10 01:27:25;;;;;;;2.10;1.40;;;;;;;14.10;40.77;95369.81;4959963;28;20231;-64
2022/05/10 01:30:11;;;;;;;4.15;1.95;;;;;;;14.06;40.79;95373.75;4978815;28;20219;-62
2022/05/10 01:35:52;;;;;;;2.55;1.98;;;;;;;13.65;41.43;95374.53;4962293;28;20257;-62
2022/05/10 01:38:31;;;;;;;2.22;1.48;;;;;;;13.85;41.01;95369.78;4969844;28;20282;-63
2022/05/10 01:41:26;;;;;;;4.38;2.00;;;;;;;13.88;41.16;95372.09;4970152;28;20230;-63
2022/05/10 01:44:03;;;;;;;2.97;1.90;;;;;;;13.74;41.62;95369.25;4976497;28;20217;-63
2022/05/10 01:46:30;;;;;;;2.30;2.10;;;;;;;13.80;41.52;95364.16;4969238;28;20224;-66
2022/05/10 01:49:14;;;;;;;2.55;1.88;;;;;;;13.81;41.65;95368.47;4965626;28;20338;-66
2022/05/10 01:51:52;;;;;;;3.42;2.00;;;;;;;13.56;42.37;95364.94;4981792;28;20204;-63
2022/05/10 01:54:39;;;;;;;3.13;2.03;;;;;;;13.44;43.03;95369.72;4961976;28;20247;-63
2022/05/10 01:57:13;;;;;;;4.53;2.10;;;;;;;13.08;43.85;95374.31;4972929;28;20247;-63
2022/05/10 01:59:45;;;;;;;4.30;2.65;;;;;;;13.43;43.02;95369.88;4968912;28;20302;-62
2022/05/10 02:02:13;;;;;;;6.43;2.08;;;;;;;13.49;42.99;95358.66;4977396;28;20223;-67
2022/05/10 02:04:41;;;;;;;4.25;2.30;;;;;;;13.25;43.76;95360.19;4968327;28;20299;-66
2022/05/10 02:07:18;;;;;;;3.13;2.10;;;;;;;13.22;43.69;95368.44;4965128;28;20283;-66
2022/05/10 02:10:01;;;;;;;8.07;2.53;;;;;;;13.27;43.76;95362.72;4980982;28;20209;-66
2022/05/10 02:12:35;;;;;;;3.45;1.90;;;;;;;13.29;43.74;95359.94;4985722;28;20258;-65
2022/05/10 02:15:12;;;;;;;5.00;2.20;;;;;;;13.25;43.61;95362.00;4965196;28;20301;-65
2022/05/10 02:17:46;;;;;;;4.55;2.33;;;;;;;13.12;43.99;95365.09;4965910;28;20228;-65
2022/05/10 02:20:20;;;;;;;2.97;2.15;;;;;;;13.13;43.98;95368.59;4970632;28;20295;-65
2022/05/10 02:22:59;;;;;;;3.78;2.47;;;;;;;13.19;44.76;95374.03;4963365;28;20221;-68
2022/05/10 02:25:37;;;;;;;3.60;2.20;;;;;;;13.13;44.47;95369.41;4945616;28;20220;-65
2022/05/10 02:28:19;;;;;;;3.58;2.20;;;;;;;13.11;44.57;95367.91;4946540;28;20221;-65
2022/05/10 02:30:45;;;;;;;4.43;2.30;;;;;;;13.06;44.96;95368.38;4944729;28;20214;-64
2022/05/10 02:33:14;;;;;;;3.70;2.53;;;;;;;13.02;45.27;95365.22;4958230;28;20228;-67
2022/05/10 02:35:55;;;;;;;5.80;2.35;;;;;;;13.13;45.05;95364.13;4965073;28;20274;-66
2022/05/10 02:38:33;;;;;;;4.50;2.25;;;;;;;12.92;45.50;95361.06;4981236;28;20287;-66
2022/05/10 02:41:01;;;;;;;4.72;2.72;;;;;;;12.93;46.38;95352.97;4959742;28;20326;-65
2022/05/10 02:43:30;;;;;;;6.45;2.60;;;;;;;13.01;46.39;95358.28;4959836;28;20252;-65
2022/05/10 02:45:56;;;;;;;5.47;3.13;;;;;;;13.05;46.47;95358.81;4957469;28;20240;-65
2022/05/10 02:48:27;;;;;;;4.85;2.85;;;;;;;13.01;46.88;95358.28;4962521;28;20244;-65
2022/05/10 02:50:53;;;;;;;5.10;3.13;;;;;;;12.95;47.30;95369.47;4947230;28;20220;-65
2022/05/10 02:53:19;;;;;;;5.72;2.80;;;;;;;12.63;48.65;95364.03;4967199;28;20226;-62
2022/05/10 02:55:58;;;;;;;3.55;2.70;;;;;;;12.85;48.27;95370.56;4982795;28;20232;-63
2022/05/10 02:58:27;;;;;;;6.72;2.80;;;;;;;12.86;48.40;95372.25;4968744;28;20295;-62
2022/05/10 03:01:00;;;;;;;6.13;2.85;;;;;;;12.80;48.27;95371.91;4984549;28;20231;-67
2022/05/10 03:03:28;;;;;;;8.02;3.60;;;;;;;12.71;48.29;95362.25;4975500;28;20203;-66
2022/05/10 03:05:54;;;;;;;6.18;3.55;;;;;;;12.76;48.25;95367.91;4979287;28;20235;-67
2022/05/10 03:08:21;;;;;;;6.40;3.00;;;;;;;12.77;48.20;95366.06;4968816;28;20220;-66
2022/05/10 03:10:46;;;;;;;6.65;2.95;;;;;;;12.56;48.69;95369.09;4965833;28;20252;-67
2022/05/10 03:13:13;;;;;;;6.65;3.00;;;;;;;12.47;49.21;95360.28;4959220;28;20721;-63
2022/05/10 03:15:39;;;;;;;5.75;3.35;;;;;;;12.43;49.81;95374.78;4943601;28;20991;-62
2022/05/10 03:18:05;;;;;;;5.18;2.92;;;;;;;12.36;50.36;95369.28;4970326;28;20188;-62
2022/05/10 03:20:30;;;;;;;7.43;3.33;;;;;;;12.44;50.26;95368.53;4965356;28;20256;-64
2022/05/10 03:22:56;;;;;;;6.60;3.95;;;;;;;12.47;49.45;95370.03;4976500;28;20275;-66
2022/05/10 03:25:21;;;;;;;4.55;3.75;;;;;;;12.38;50.04;95370.97;4968289;28;20216;-65
2022/05/10 03:27:48;;;;;;;9.25;3.60;;;;;;;12.21;50.42;95370.00;4949281;28;20231;-66
2022/05/10 03:30:14;;;;;;;6.55;3.58;;;;;;;12.26;50.48;95373.81;4981022;28;20208;-65
2022/05/10 03:32:40;;;;;;;7.20;3.20;;;;;;;12.47;49.87;95380.56;4979757;28;20229;-68
2022/05/10 03:35:05;;;;;;;4.90;3.70;;;;;;;12.34;50.31;95381.78;4967993;28;20259;-65
2022/05/10 03:37:31;;;;;;;5.38;3.22;;;;;;;12.50;49.85;95385.53;4973618;28;20253;-65
2022/05/10 03:39:59;;;;;;;4.28;3.50;;;;;;;12.48;49.82;95382.22;4969879;28;20232;-64
2022/05/10 03:42:25;;;;;;;6.40;4.05;;;;;;;12.49;50.19;95383.91;4962589;28;20304;-67
2022/05/10 03:44:52;;;;;;;5.03;3.70;;;;;;;12.40;50.66;95382.16;4968384;28;20359;-67
2022/05/10 03:47:22;;;;;;;8.10;3.80;;;;;;;12.38;50.78;95381.50;4967856;28;20246;-66
2022/05/10 03:49:49;;;;;;;8.95;4.20;;;;;;;12.37;50.86;95391.22;4971910;28;20246;-70
2022/05/10 03:52:15;;;;;;;10.60;4.30;;;;;;;12.31;51.63;95390.00;4979478;28;20220;-66
2022/05/10 03:54:41;;;;;;;9.25;4.38;;;;;;;12.46;50.85;95397.41;4976642;28;20228;-66
2022/05/10 03:57:07;;;;;;;8.80;3.65;;;;;;;12.40;50.98;95403.25;4972984;28;20227;-68
2022/05/10 03:59:32;;;;;;;9.00;3.80;;;;;;;12.48;50.75;95396.25;4973958;28;20228;-64
2022/05/10 04:01:58;;;;;;;8.30;4.15;;;;;;;12.65;50.62;95399.81;4963279;28;20906;-64
2022/05/10 04:04:24;;;;;;;9.40;4.15;;;;;;;12.70;50.26;95405.47;4975534;28;20306;-65
2022/05/10 04:06:50;;;;;;;6.63;4.28;;;;;;;12.71;50.53;95404.47;4974674;28;20255;-66
2022/05/10 04:09:16;;;;;;;7.28;3.75;;;;;;;12.83;50.08;95401.56;4982982;28;20211;-65
2022/05/10 04:11:43;;;;;;;9.85;4.78;;;;;;;12.91;50.25;95406.88;4970300;28;20271;-61
2022/05/10 04:14:08;;;;;;;9.38;4.00;;;;;;;12.84;49.85;95404.06;4964634;28;20228;-71
2022/05/10 04:16:34;;;;;;;10.00;4.55;;;;;;;12.68;49.89;95407.44;4964364;28;20231;-70
2022/05/10 04:19:00;;;;;;;4.68;4.03;;;;;;;12.68;49.61;95407.44;4945913;28;20216;-69
2022/05/10 04:21:26;;;;;;;8.60;4.22;;;;;;;12.82;49.37;95408.66;4950254;28;20205;-67
2022/05/10 04:23:51;;;;;;;6.82;4.10;;;;;;;12.82;49.68;95402.56;4981998;28;20225;-67
2022/05/10 04:26:18;;;;;;;8.20;4.38;;;;;;;12.78;49.23;95400.25;4968957;28;20243;-67
2022/05/10 04:28:45;;;;;;;9.88;5.13;;;;;;;12.89;49.15;95407.06;4969769;28;20259;-65
2022/05/10 04:31:11;;;;;;;5.93;4.03;;;;;;;12.70;49.82;95408.09;4971127;28;20224;-66
2022/05/10 04:33:37;;;;;;;13.15;4.63;;;;;;;12.84;49.08;95405.88;4961308;28;20212;-65
2022/05/10 04:36:03;;;;;;;8.55;4.25;;;;;;;12.48;49.95;95408.59;4964222;28;20243;-65
2022/05/10 04:38:28;;;;;;;5.22;4.30;;;;;;;12.59;50.21;95408.38;4966278;28;20216;-64
2022/05/10 04:43:39;;;;;;;6.25;4.50;;;;;;;12.91;49.89;95414.81;4956250;28;20240;-65
2022/05/10 04:46:05;;;;;;;8.38;4.43;;;;;;;13.08;49.62;95415.75;4960245;28;20224;-68
2022/05/10 04:48:30;;;;;;;9.85;4.40;;;;;;;13.09;49.70;95407.66;4944129;28;20236;-68
2022/05/10 04:50:56;;;;;;;7.13;4.63;;;;;;;13.25;49.03;95418.28;4944069;28;20231;-69
2022/05/10 04:53:21;;;;;;;10.00;4.93;;;;;;;12.95;49.10;95417.00;4977247;28;20228;-68
2022/05/10 04:55:48;;;;;;;27.88;23.80;;;;;;;12.93;49.50;95420.78;4967279;28;20235;-68
2022/05/10 04:58:14;;;;;;;12.07;5.20;;;;;;;13.06;48.98;95418.53;4974185;28;20217;-68
2022/05/10 05:00:40;;;;;;;8.55;4.53;;;;;;;13.19;48.88;95418.94;4965462;28;20220;-68
2022/05/10 05:03:06;;;;;;;6.97;4.82;;;;;;;13.26;48.69;95416.53;4970767;28;20211;-69
2022/05/10 05:05:32;;;;;;;5.57;3.85;;;;;;;13.45;48.30;95413.63;4962115;28;20235;-65
2022/05/10 05:07:58;;;;;;;9.13;4.90;;;;;;;13.49;47.97;95418.59;4963482;28;20232;-65
2022/05/10 05:10:24;;;;;;;7.68;4.20;;;;;;;13.62;47.51;95424.25;4974096;28;20307;-64
2022/05/10 05:12:49;;;;;;;5.95;4.53;;;;;;;13.64;47.24;95417.81;4959896;28;20219;-64
2022/05/10 05:15:16;;;;;;;6.63;4.82;;;;;;;13.70;47.05;95416.34;4959477;28;20216;-67
2022/05/10 05:17:41;;;;;;;6.45;4.43;;;;;;;13.66;46.84;95421.13;4979286;28;20224;-64
2022/05/10 05:20:08;;;;;;;7.43;4.35;;;;;;;13.66;47.04;95415.03;4970481;28;20275;-67
2022/05/10 05:22:33;;;;;;;8.05;4.70;;;;;;;13.47;46.88;95413.44;4962166;28;20251;-64
2022/05/10 05:24:59;;;;;;;9.75;5.15;;;;;;;13.59;46.41;95417.47;4968236;28;20251;-63
2022/05/10 05:27:24;;;;;;;7.00;4.97;;;;;;;13.70;46.76;95410.22;4967099;28;20227;-64
2022/05/10 05:29:50;;;;;;;10.07;5.32;;;;;;;13.89;45.93;95415.22;4961225;28;20294;-64
2022/05/10 05:32:19;;;;;;;7.97;4.97;;;;;;;13.93;46.00;95413.94;4975012;28;20260;-64
2022/05/10 05:34:45;;;;;;;7.45;4.65;;;;;;;14.08;45.89;95414.91;4969175;28;20229;-64
2022/05/10 05:39:54;;;;;;;7.47;4.75;;;;;;;14.20;45.82;95407.50;4960994;28;20287;-64
2022/05/10 05:42:20;;;;;;;5.75;4.50;;;;;;;14.16;46.23;95406.16;4961478;28;20219;-65
2022/05/10 05:44:45;;;;;;;6.13;5.07;;;;;;;14.28;45.79;95409.34;4966919;28;20284;-65
2022/05/10 05:47:11;;;;;;;8.18;4.57;;;;;;;14.33;45.32;95407.03;4959111;28;20252;-65
2022/05/10 05:49:37;;;;;;;8.60;5.40;;;;;;;14.16;45.50;95408.00;4954670;28;20311;-65
2022/05/10 05:52:03;;;;;;;6.32;4.90;;;;;;;14.22;45.48;95404.69;4951277;28;20217;-66
2022/05/10 05:54:31;;;;;;;9.48;5.03;;;;;;;14.44;45.00;95403.22;4955492;28;20228;-65
2022/05/10 05:57:01;;;;;;;9.30;5.22;;;;;;;14.35;45.08;95402.38;4949688;28;20300;-66
2022/05/10 05:59:27;;;;;;;8.93;4.53;;;;;;;14.47;45.31;95414.28;4948827;28;20225;-68
2022/05/10 06:01:53;;;;;;;8.90;5.20;;;;;;;14.68;44.59;95410.34;4967060;28;20223;-66
2022/05/10 06:04:18;;;;;;;8.63;5.07;;;;;;;14.73;44.47;95402.72;4960513;28;20225;-67
2022/05/10 06:06:44;;;;;;;12.38;4.97;;;;;;;14.77;44.57;95410.16;4938981;28;20209;-68
2022/05/10 06:09:09;;;;;;;7.63;4.80;;;;;;;14.84;44.70;95410.31;4945930;28;20266;-68
2022/05/10 06:11:35;;;;;;;10.80;4.90;;;;;;;14.87;44.45;95407.31;4966146;28;20240;-68
2022/05/10 06:14:01;;;;;;;7.40;4.68;;;;;;;14.88;43.72;95408.16;4969253;28;20221;-67
2022/05/10 06:16:27;;;;;;;11.20;4.72;;;;;;;14.82;43.63;95408.84;4948469;28;20237;-65
2022/05/10 06:18:53;;;;;;;9.57;5.05;;;;;;;14.96;42.93;95408.13;4958106;28;20433;-65
2022/05/10 06:21:18;;;;;;;6.57;4.72;;;;;;;15.03;43.83;95416.25;4961970;28;20218;-66
2022/05/10 06:23:44;;;;;;;9.40;4.60;;;;;;;15.00;43.98;95404.16;4965428;28;20307;-68
2022/05/10 06:26:09;;;;;;;7.85;4.93;;;;;;;14.97;43.59;95404.50;4967475;28;20275;-66
2022/05/10 06:28:35;;;;;;;11.23;5.00;;;;;;;15.09;43.31;95413.72;4971993;28;20236;-68
2022/05/10 06:31:04;;;;;;;10.52;4.80;;;;;;;15.15;43.25;95413.03;4974803;28;20285;-65
2022/05/10 06:33:30;;;;;;;7.85;4.50;;;;;;;15.32;42.66;95413.00;4975983;28;20237;-66
2022/05/10 06:35:55;;;;;;;9.88;4.38;;;;;;;15.00;42.93;95404.97;4976531;28;20266;-66
2022/05/10 06:38:27;;;;;;;10.48;4.10;;;;;;;15.27;42.50;95404.75;4966980;28;20336;-66
2022/05/10 06:40:53;;;;;;;9.65;4.20;;;;;;;15.47;42.61;95399.84;4970576;28;20231;-66
2022/05/10 06:43:19;;;;;;;5.43;4.45;;;;;;;15.50;42.15;95400.31;4964944;28;20240;-68
2022/05/10 06:45:45;;;;;;;7.43;4.07;;;;;;;15.63;41.39;95405.88;4982344;28;20211;-67
2022/05/10 06:48:11;;;;;;;10.70;4.90;;;;;;;15.61;41.07;95399.09;4976444;28;20208;-68
2022/05/10 06:50:37;;;;;;;8.40;4.47;;;;;;;15.68;41.24;95392.13;4959412;28;20787;-64
2022/05/10 06:53:06;;;;;;;9.85;4.60;;;;;;;15.69;41.68;95399.13;4959851;28;20243;-65
2022/05/10 06:55:34;;;;;;;6.32;3.63;;;;;;;15.84;41.54;95402.66;4958285;28;20248;-66
2022/05/10 06:58:09;;;;;;;10.15;4.22;;;;;;;15.81;41.70;95407.50;4974697;28;20762;-64
2022/05/10 07:00:38;;;;;;;6.63;3.42;;;;;;;15.82;41.09;95399.38;4973330;28;20220;-65
2022/05/10 07:03:15;;;;;;;7.75;3.60;;;;;;;15.95;40.89;95403.28;4975627;28;20208;-64
2022/05/10 07:05:47;;;;;;;8.80;3.47;;;;;;;15.93;39.68;95399.97;4978422;28;20234;-68
2022/05/10 07:08:15;;;;;;;7.70;3.72;;;;;;;16.03;40.09;95396.06;4969192;28;20225;-67
2022/05/10 07:10:41;;;;;;;6.85;3.85;;;;;;;16.16;39.73;95394.69;4973548;28;20244;-65
2022/05/10 07:13:36;;;;;;;7.13;3.38;;;;;;;16.24;40.16;95387.47;4972227;28;20238;-66
2022/05/10 07:16:02;;;;;;;7.50;4.00;;;;;;;16.31;40.44;95398.22;4971731;28;20242;-69
2022/05/10 07:18:28;;;;;;;5.70;3.60;;;;;;;16.30;40.36;95383.28;4980827;28;20208;-64
2022/05/10 07:20:54;;;;;;;6.28;3.65;;;;;;;16.38;39.19;95387.72;4981177;28;20227;-65
2022/05/10 07:23:21;;;;;;;9.80;4.00;;;;;;;16.42;40.23;95383.72;4991677;28;20212;-65
2022/05/10 07:25:47;;;;;;;7.35;3.38;;;;;;;16.51;39.55;95383.44;4957296;28;20224;-67
2022/05/10 07:28:13;;;;;;;8.43;3.97;;;;;;;16.72;39.83;95393.38;4961795;28;20257;-65
2022/05/10 07:30:41;;;;;;;9.70;4.10;;;;;;;16.77;39.06;95392.88;4963239;28;20299;-68
2022/05/10 07:33:08;;;;;;;8.38;3.92;;;;;;;16.73;38.23;95384.41;4968185;28;20537;-66
2022/05/10 07:38:21;;;;;;;9.70;4.18;;;;;;;16.81;38.28;95395.97;4964467;28;20304;-65
2022/05/10 07:40:49;;;;;;;8.10;3.70;;;;;;;16.89;38.02;95398.56;4974661;28;20255;-68
2022/05/10 07:43:19;;;;;;;7.43;3.85;;;;;;;17.07;37.94;95388.41;4965391;28;20662;-60
2022/05/10 07:45:54;;;;;;;9.00;3.70;;;;;;;17.05;38.13;95395.72;4969301;28;20215;-64
2022/05/10 07:48:26;;;;;;;6.43;3.17;;;;;;;16.91;36.66;95388.59;4967332;28;20204;-69
2022/05/10 07:50:52;;;;;;;8.95;3.45;;;;;;;17.02;36.52;95389.97;4971032;28;20231;-68
2022/05/10 07:53:17;;;;;;;8.13;3.67;;;;;;;17.08;37.36;95390.06;4968767;28;20233;-65
2022/05/10 07:55:44;;;;;;;10.07;3.20;;;;;;;17.30;37.74;95390.97;4958457;28;20232;-66
2022/05/10 07:58:10;;;;;;;7.10;2.95;;;;;;;17.36;39.04;95398.22;4960087;28;20290;-68
2022/05/10 08:00:43;;;;;;;7.20;3.05;;;;;;;17.33;36.69;95392.44;4957531;28;20208;-63
2022/05/10 08:03:18;;;;;;;4.60;3.22;;;;;;;17.48;35.90;95385.28;4953572;28;20433;-67
2022/05/10 08:05:44;;;;;;;4.90;2.30;;;;;;;17.52;36.23;95383.06;4960293;28;20239;-66
2022/05/10 08:08:11;;;;;;;7.88;2.83;;;;;;;17.58;35.29;95383.13;4957380;28;20233;-66
2022/05/10 08:10:38;;;;;;;7.35;3.30;;;;;;;17.59;36.45;95382.16;4964149;28;20227;-66
2022/05/10 08:13:18;;;;;;;3.35;1.90;;;;;;;17.67;30.74;95381.22;4949219;28;20239;-64
2022/05/10 08:15:54;;;;;;;3.50;1.85;;;;;;;17.67;31.80;95389.19;4953564;28;20204;-65
2022/05/10 08:18:21;;;;;;;3.53;2.08;;;;;;;17.73;31.01;95367.16;4968223;28;20223;-71
2022/05/10 08:20:47;;;;;;;4.50;2.10;;;;;;;17.95;30.57;95377.88;4945833;28;20224;-69
2022/05/10 08:23:22;;;;;;;1.88;1.42;;;;;;;17.84;26.72;95373.88;4948495;28;20220;-66
2022/05/10 08:25:49;;;;;;;5.50;1.73;;;;;;;17.80;28.38;95367.25;4962650;28;20225;-66
2022/05/10 08:28:15;;;;;;;3.17;1.75;;;;;;;17.96;28.80;95366.19;4967274;28;20299;-65
2022/05/10 08:30:43;;;;;;;1.92;1.17;;;;;;;18.04;27.52;95363.41;4970823;28;20207;-64
2022/05/10 08:33:10;;;;;;;1.52;1.27;;;;;;;18.11;27.16;95369.63;4971114;28;20735;-65
2022/05/10 08:35:37;;;;;;;2.08;1.70;;;;;;;18.17;28.72;95368.88;4964669;28;20621;-65
2022/05/10 08:38:04;;;;;;;2.85;1.63;;;;;;;18.37;27.50;95365.59;4968166;28;20227;-65
2022/05/10 08:40:51;;;;;;;2.13;1.60;;;;;;;18.38;27.69;95360.06;4972577;28;20239;-66
2022/05/10 08:43:24;;;;;;;2.03;1.60;;;;;;;18.42;28.52;95368.50;4965956;28;20224;-67
2022/05/10 08:45:51;;;;;;;2.03;1.80;;;;;;;18.43;27.98;95362.16;4969586;28;20234;-67
2022/05/10 08:48:16;;;;;;;2.28;1.80;;;;;;;18.44;29.21;95363.78;4968860;28;20200;-67
2022/05/10 08:51:03;;;;;;;5.63;1.80;;;;;;;18.50;28.96;95368.38;4981197;28;20446;-66
2022/05/10 08:53:31;;;;;;;3.33;1.63;;;;;;;18.54;29.32;95368.78;4968447;28;20263;-66
2022/05/10 08:56:03;;;;;;;2.67;1.83;;;;;;;18.74;29.58;95356.47;4969076;28;20235;-64
2022/05/10 08:59:02;;;;;;;2.90;1.70;;;;;;;18.77;30.04;95358.78;4960859;28;20228;-65
2022/05/10 09:01:43;;;;;;;3.72;2.15;;;;;;;18.83;30.40;95362.50;4948574;28;20312;-65
2022/05/10 09:04:40;;;;;;;2.85;2.00;;;;;;;18.98;31.31;95357.88;4951938;28;20220;-63
2022/05/10 09:07:12;;;;;;;3.92;2.30;;;;;;;19.07;31.18;95347.88;4970500;28;20231;-66
2022/05/10 09:10:04;;;;;;;4.18;1.95;;;;;;;19.09;29.93;95351.19;4954593;28;20221;-67
2022/05/10 09:12:40;;;;;;;3.03;1.55;;;;;;;19.18;29.92;95350.00;4879517;29;20254;-70
2022/05/10 09:15:07;;;;;;;4.38;2.13;;;;;;;19.19;29.89;95346.31;4878881;29;20249;-63
2022/05/10 09:17:36;;;;;;;2.65;2.45;;;;;;;19.32;29.83;95351.69;4879196;29;20321;-67
2022/05/10 09:20:10;;;;;;;4.30;2.25;;;;;;;19.53;29.45;95342.78;4874971;29;20238;-65
2022/05/10 09:22:55;;;;;;;2.90;1.77;;;;;;;19.55;28.65;95346.06;4880507;29;20234;-65
2022/05/10 09:25:48;;;;;;;3.85;1.80;;;;;;;19.69;28.39;95341.63;4880811;29;20235;-64
2022/05/10 09:28:29;;;;;;;4.00;1.75;;;;;;;19.78;29.49;95337.78;4873081;29;20230;-67
2022/05/10 09:36:28;;;;;;;2.90;2.38;;;;;;;20.03;29.62;95337.22;4888471;29;20249;-63
2022/05/10 09:39:01;;;;;;;3.08;2.20;;;;;;;20.35;28.49;95338.28;4870882;29;21157;-62
2022/05/10 09:41:36;;;;;;;2.97;2.17;;;;;;;20.32;28.24;95327.19;4873952;29;20260;-67
2022/05/10 09:44:19;;;;;;;4.22;2.08;;;;;;;20.51;28.07;95326.38;4889171;29;20229;-66
2022/05/10 09:46:44;;;;;;;3.38;2.10;;;;;;;20.49;28.14;95321.22;4872050;29;20227;-70
2022/05/10 09:49:30;;;;;;;3.20;1.90;;;;;;;20.65;26.85;95328.03;4901098;28;20227;-60
2022/05/10 09:51:59;;;;;;;5.38;1.85;;;;;;;20.65;27.84;95322.69;4980923;28;20317;-61
2022/05/10 09:54:38;;;;;;;2.80;1.85;;;;;;;20.85;27.17;95316.47;4980638;28;20216;-63
2022/05/10 09:57:06;;;;;;;2.45;2.22;;;;;;;21.05;28.46;95319.94;4968992;28;20215;-64
2022/05/10 09:59:46;;;;;;;3.03;2.08;;;;;;;20.95;27.08;95308.84;4973998;28;20259;-65
2022/05/10 10:02:34;;;;;;;3.40;1.88;;;;;;;21.15;28.44;95306.16;4964863;28;20227;-69
2022/05/10 10:05:25;;;;;;;3.80;2.08;;;;;;;21.34;28.27;95305.25;4967184;28;20684;-65
2022/05/10 10:07:53;;;;;;;2.75;2.25;;;;;;;21.54;28.95;95307.88;4975033;28;20330;-69
2022/05/10 10:10:38;;;;;;;4.43;2.30;;;;;;;21.72;28.80;95306.34;4978710;28;20223;-66
2022/05/10 10:13:33;;;;;;;2.47;1.80;;;;;;;21.85;27.07;95302.78;4957586;28;20229;-74
2022/05/10 10:16:00;;;;;;;7.63;2.20;;;;;;;21.79;25.89;95299.94;4938032;28;20232;-71
2022/05/10 10:18:52;;;;;;;3.08;2.17;;;;;;;21.80;26.70;95292.72;4946541;28;20197;-68
2022/05/10 10:21:32;;;;;;;4.03;2.28;;;;;;;21.99;25.71;95293.63;4944509;28;20224;-70
2022/05/10 10:23:59;;;;;;;5.18;2.33;;;;;;;22.20;25.23;95276.41;4948484;28;20274;-65
2022/05/10 10:26:48;;;;;;;2.10;1.77;;;;;;;22.40;25.24;95278.91;4947827;28;20224;-66
2022/05/10 10:29:38;;;;;;;2.10;2.00;;;;;;;22.59;25.30;95277.94;4960066;28;20310;-62
2022/05/10 10:32:16;;;;;;;4.43;2.15;;;;;;;22.82;25.52;95271.94;4964595;28;20291;-65
2022/05/10 10:34:51;;;;;;;3.17;2.20;;;;;;;22.96;24.70;95263.75;4952405;28;20287;-71
2022/05/10 10:37:32;;;;;;;5.03;2.85;;;;;;;23.09;24.27;95274.38;4968240;28;20226;-70
2022/05/10 10:40:37;;;;;;;4.05;2.10;;;;;;;23.32;24.50;95279.06;4950511;28;20224;-66
2022/05/10 10:43:27;;;;;;;2.47;1.83;;;;;;;23.33;24.06;95278.84;4951123;28;20227;-68
2022/05/10 10:46:07;;;;;;;2.92;2.05;;;;;;;23.33;23.74;95268.13;4952378;28;20223;-69
2022/05/10 10:48:46;;;;;;;4.70;2.05;;;;;;;23.24;23.14;95263.28;4971840;28;20876;-70
2022/05/10 10:51:12;;;;;;;4.60;2.20;;;;;;;23.23;22.81;95253.56;4950954;28;20212;-62
2022/05/10 10:53:39;;;;;;;3.05;1.90;;;;;;;23.38;23.30;95253.19;4954794;28;20220;-65
2022/05/10 10:56:22;;;;;;;6.97;2.47;;;;;;;23.60;23.19;95257.03;4968152;28;20321;-66
2022/05/10 10:58:47;;;;;;;4.53;1.85;;;;;;;23.36;23.40;95249.91;4956964;28;20307;-63
2022/05/10 11:01:29;;;;;;;3.53;2.20;;;;;;;22.91;23.52;95245.69;4958436;28;20315;-64
2022/05/10 11:04:13;;;;;;;3.13;2.00;;;;;;;22.88;23.95;95249.63;4973749;28;21259;-65
2022/05/10 11:06:48;;;;;;;2.28;1.80;;;;;;;22.88;23.05;95254.13;4980240;28;20567;-65
2022/05/10 11:09:29;;;;;;;2.42;1.90;;;;;;;23.08;22.64;95240.56;4977646;28;20204;-66
2022/05/10 11:12:12;;;;;;;2.00;1.90;;;;;;;23.51;23.25;95236.94;4961934;28;20241;-66
2022/05/10 11:14:58;;;;;;;4.35;2.15;;;;;;;23.91;22.62;95231.03;4955958;28;20220;-67
2022/05/10 11:17:54;;;;;;;3.25;2.03;;;;;;;23.83;21.44;95232.16;4956100;28;20327;-66
2022/05/10 11:20:50;;;;;;;2.78;2.55;;;;;;;24.09;21.73;95225.56;4968958;28;20231;-65
2022/05/10 11:23:55;;;;;;;4.47;2.35;;;;;;;24.41;20.13;95230.63;4970706;28;20240;-66
2022/05/10 11:26:46;;;;;;;2.92;1.70;;;;;;;24.09;19.12;95219.38;4965102;28;20282;-65
2022/05/10 11:29:22;;;;;;;2.58;1.77;;;;;;;24.26;20.86;95223.03;4964017;28;20233;-65
2022/05/10 11:32:20;;;;;;;2.30;1.65;;;;;;;24.42;19.46;95216.94;4977070;28;20236;-66
2022/05/10 11:35:22;;;;;;;1.98;1.50;;;;;;;24.69;18.31;95207.63;4886270;29;20234;-65
2022/05/10 11:37:47;;;;;;;4.32;1.90;;;;;;;24.94;19.42;95201.97;4901893;29;20239;-65
2022/05/10 11:40:35;;;;;;;4.13;1.90;;;;;;;25.18;19.51;95198.22;4922987;29;20221;-65
2022/05/10 11:43:19;;;;;;;2.85;1.70;;;;;;;25.25;17.53;95190.81;4903428;29;20313;-65
2022/05/10 11:45:50;;;;;;;3.88;2.00;;;;;;;25.11;18.02;95191.31;4925978;29;20302;-66
2022/05/10 11:48:24;;;;;;;2.88;2.08;;;;;;;25.36;18.52;95189.13;4913149;29;20211;-65
2022/05/10 11:54:17;;;;;;;2.63;1.90;;;;;;;25.68;18.68;95181.38;4925255;29;20296;-65
2022/05/10 11:56:44;;;;;;;4.22;1.95;;;;;;;25.61;18.67;95177.19;4925219;29;20237;-65
2022/05/10 11:59:35;;;;;;;4.00;2.40;;;;;;;25.76;19.36;95166.69;4915123;29;20229;-65
2022/05/10 12:02:04;;;;;;;4.05;2.22;;;;;;;26.05;18.92;95170.19;4886613;29;20242;-64
2022/05/10 12:04:38;;;;;;;5.97;2.45;;;;;;;26.11;20.00;95168.38;4862427;29;21019;-64
2022/05/10 12:07:18;;;;;;;4.13;2.25;;;;;;;26.35;20.56;95164.44;4873732;29;20221;-66
2022/05/10 12:10:00;;;;;;;4.22;2.25;;;;;;;26.37;20.68;95158.81;4890861;29;20225;-65
2022/05/10 12:12:31;;;;;;;3.60;2.13;;;;;;;26.58;19.78;95144.59;4910955;29;20225;-65
2022/05/10 12:21:19;;;;;;;4.18;1.95;;;;;;;26.85;18.67;95141.16;4925715;29;20275;-64
2022/05/10 12:24:06;;;;;;;6.95;2.10;;;;;;;26.44;19.12;95140.59;4924289;29;20252;-65